Flight Track Log - Related Links

Times and Time Zones

All times are in EDT time to prevent confusion due to time zone crossing. See the N5073C flight status page for this flight to view local times or setup timezone preferences in your user account.

Time Position Orientation Groundspeed Altitude Reporting Facility
EDT Latitude Longitude Course Direction KTS MPH feet Rate Location/Type
Thu 04:53:44 PM 39.4667 -119.7667 356° North 123 142 4,900  Level Northern Cal TRACON
Thu 04:54:44 PM 39.4333 -119.7667 180° South 127 146 5,600 650 Climbing Northern Cal TRACON
Thu 04:55:44 PM 39.4167 -119.7500 142° Southeast 125 144 6,200 500 Climbing Northern Cal TRACON
Thu 04:56:44 PM 39.4500 -119.7167 38° Northeast 131 151 6,600 524 Climbing Northern Cal TRACON
Thu 04:57:50 PM 39.4833 -119.7000 21° North 130 150 7,300 667 Climbing Northern Cal TRACON
Thu 04:58:50 PM 39.5167 -119.6833 21° North 132 152 8,000 600 Climbing Northern Cal TRACON
Thu 04:59:00 PM 39.5107 -119.7692 356° North  Level Estimated
Thu 04:59:50 PM 39.5500 -119.7000 339° North 139 160 8,500  Level Northern Cal TRACON
Thu 05:00:44 PM 39.5833 -119.7000 360° North 139 160 9,200 632 Climbing Northern Cal TRACON
Thu 05:01:44 PM 39.6167 -119.7167 339° North 138 159 9,700 474 Climbing Northern Cal TRACON
Thu 05:02:38 PM 39.6575 -119.7258 350° North 137 158 10,100 470 Climbing Oakland Center
Thu 05:03:39 PM 39.6972 -119.7369 348° North 144 166 10,600 488 Climbing Oakland Center
Thu 05:04:41 PM 39.7375 -119.7461 350° North 145 167 11,100 488 Climbing Oakland Center
Thu 05:05:42 PM 39.7775 -119.7558 349° North 146 168 11,600 393 Climbing Oakland Center
Thu 05:06:43 PM 39.8181 -119.7686 346° North 148 170 11,900 390 Climbing Oakland Center
Thu 05:07:45 PM 39.8614 -119.7800 349° North 153 176 12,400 341 Climbing Oakland Center
Thu 05:08:46 PM 39.9139 -119.7925 350° North 156 180 12,600 98 Climbing Oakland Center
Thu 05:09:48 PM 39.9603 -119.8053 348° North 162 186 12,600  Level Oakland Center
Thu 05:10:49 PM 40.0047 -119.8169 349° North 164 189 12,600  Level Oakland Center
Thu 05:11:50 PM 40.0461 -119.8278 349° North 158 182 12,600  Level Oakland Center
Thu 05:12:52 PM 40.0861 -119.8394 347° North 151 174 12,600  Level Oakland Center
Thu 05:13:53 PM 40.1272 -119.8506 348° North 149 171 12,600  Level Oakland Center
Thu 05:14:54 PM 40.1683 -119.8608 349° North 151 174 12,600  Level Oakland Center
Thu 05:15:56 PM 40.2117 -119.8722 349° North 150 173 12,600  Level Oakland Center
Thu 05:16:57 PM 40.2497 -119.8817 349° North 149 171 12,600  Level Oakland Center
Thu 05:17:59 PM 40.2908 -119.8922 349° North 150 173 12,600  Level Oakland Center
Thu 05:19:00 PM 40.3383 -119.9061 347° North 148 170 12,600  Level Oakland Center
Thu 05:20:01 PM 40.3789 -119.9178 348° North 148 170 12,600  Level Oakland Center
Thu 05:21:03 PM 40.4164 -119.9239 353° North 130 150 12,600  Level Oakland Center
Thu 05:22:04 PM 40.4553 -119.9375 345° North 144 166 12,600  Level Oakland Center
Thu 05:23:06 PM 40.5033 -119.9497 349° North 145 167 12,600  Level Oakland Center
Thu 05:24:07 PM 40.5442 -119.9603 349° North 147 169 12,600  Level Oakland Center
Thu 05:25:08 PM 40.5839 -119.9714 348° North 147 169 12,600  Level Oakland Center
Thu 05:26:10 PM 40.6253 -119.9822 349° North 148 170 12,600  Level Oakland Center
Thu 05:27:11 PM 40.6647 -119.9925 349° North 147 169 12,600  Level Oakland Center
Thu 05:28:13 PM 40.7047 -120.0033 348° North 147 169 12,600  Level Oakland Center
Thu 05:29:15 PM 40.7442 -120.0144 348° North 146 168 12,600  Level Oakland Center
Thu 05:30:15 PM 40.7836 -120.0222 352° North 145 167 12,600  Level Oakland Center
Thu 05:31:17 PM 40.8244 -120.0247 357° North 144 166 12,600  Level Oakland Center
Thu 05:32:19 PM 40.8736 -120.0286 357° North 145 167 12,600  Level Oakland Center
Thu 05:33:00 PM 40.8986 -120.0278 North 148 170 12,600  Level Seattle Center
Thu 05:34:01 PM 40.9408 -120.0311 357° North 152 175 12,600  Level Seattle Center
Thu 05:35:02 PM 40.9814 -120.0344 356° North 147 169 12,600  Level Seattle Center
Thu 05:36:03 PM 41.0239 -120.0375 357° North 150 173 12,600  Level Seattle Center
Thu 05:37:03 PM 41.0642 -120.0411 356° North 149 171 12,600  Level Seattle Center
Thu 05:38:04 PM 41.1067 -120.0417 359° North 150 173 12,600  Level Seattle Center
Thu 05:39:05 PM 41.1494 -120.0444 357° North 152 175 12,600  Level Seattle Center
Thu 05:40:06 PM 41.1989 -120.0483 357° North 151 174 12,600  Level Seattle Center
Thu 05:41:07 PM 41.2411 -120.0503 358° North 151 174 12,600  Level Seattle Center
Thu 05:42:08 PM 41.2831 -120.0531 357° North 151 174 12,600  Level Seattle Center
Thu 05:43:09 PM 41.3244 -120.0575 355° North 151 174 12,600  Level Seattle Center
Thu 05:44:10 PM 41.3672 -120.0603 357° North 151 174 12,600  Level Seattle Center
Thu 05:45:10 PM 41.4117 -120.0644 356° North 154 177 12,600  Level Seattle Center
Thu 05:46:11 PM 41.4581 -120.0675 357° North 159 183 12,600  Level Seattle Center
Thu 05:47:12 PM 41.5056 -120.0694 358° North 163 188 12,600  Level Seattle Center
Thu 05:48:13 PM 41.5508 -120.0750 355° North 165 190 12,600  Level Seattle Center
Thu 05:49:14 PM 41.5969 -120.0769 358° North 165 190 12,600  Level Seattle Center
Thu 05:50:15 PM 41.6436 -120.0797 357° North 166 191 12,600  Level Seattle Center
Thu 05:51:16 PM 41.6897 -120.0831 357° North 167 192 12,600  Level Seattle Center
Thu 05:52:16 PM 41.7350 -120.0864 357° North 166 191 12,600  Level Seattle Center
Thu 05:53:17 PM 41.7808 -120.0900 357° North 166 191 12,600  Level Seattle Center
Thu 05:54:18 PM 41.8358 -120.0947 356° North 165 190 12,600  Level Seattle Center
Thu 05:55:19 PM 41.8814 -120.0989 356° North 165 190 12,600  Level Seattle Center
Thu 05:56:20 PM 41.9272 -120.0994 359° North 164 189 12,600  Level Seattle Center
Thu 05:57:21 PM 41.9731 -120.1028 357° North 164 189 12,600  Level Seattle Center
Thu 05:58:22 PM 42.0194 -120.1067 356° North 165 190 12,600  Level Seattle Center
Thu 05:59:24 PM 42.0653 -120.1097 357° North 166 191 12,600  Level Seattle Center
Thu 06:00:25 PM 42.1108 -120.1136 356° North 165 190 12,600  Level Seattle Center
Thu 06:01:26 PM 42.1561 -120.1156 358° North 164 189 12,600  Level Seattle Center
Thu 06:02:27 PM 42.2014 -120.1192 357° North 164 189 12,600  Level Seattle Center
Thu 06:03:28 PM 42.2478 -120.1236 356° North 164 189 12,600  Level Seattle Center
Thu 06:04:29 PM 42.2953 -120.1261 358° North 167 192 12,600  Level Seattle Center
Thu 06:05:30 PM 42.3414 -120.1289 357° North 167 192 12,600  Level Seattle Center
Thu 06:06:31 PM 42.3956 -120.1328 357° North 165 190 12,600  Level Seattle Center
Thu 06:07:32 PM 42.4406 -120.1369 356° North 164 189 12,600  Level Seattle Center
Thu 06:08:33 PM 42.4856 -120.1392 358° North 163 188 12,600  Level Seattle Center
Thu 06:09:34 PM 42.5306 -120.1433 356° North 163 188 12,600  Level Seattle Center
Thu 06:10:35 PM 42.5769 -120.1456 358° North 164 189 12,600  Level Seattle Center
Thu 06:11:36 PM 42.6228 -120.1481 358° North 165 190 12,600  Level Seattle Center
Thu 06:12:37 PM 42.6694 -120.1522 356° North 166 191 12,600  Level Seattle Center
Thu 06:13:38 PM 42.7167 -120.1561 357° North 167 192 12,600  Level Seattle Center
Thu 06:14:39 PM 42.7628 -120.1597 357° North 167 192 12,600  Level Seattle Center
Thu 06:15:40 PM 42.8089 -120.1631 357° North 167 192 12,600  Level Seattle Center
Thu 06:16:41 PM 42.8542 -120.1647 358° North 166 191 12,600  Level Seattle Center
Thu 06:17:42 PM 42.8997 -120.1703 355° North 164 189 12,600  Level Seattle Center
Thu 06:18:43 PM 42.9542 -120.1742 357° North 164 189 12,600  Level Seattle Center
Thu 06:19:44 PM 42.9975 -120.1733 North 162 186 12,600  Level Seattle Center
Thu 06:20:45 PM 43.0422 -120.1778 356° North 162 186 12,600  Level Seattle Center
Thu 06:21:46 PM 43.0869 -120.1831 355° North 161 185 12,600  Level Seattle Center
Thu 06:22:47 PM 43.1339 -120.1864 357° North 164 189 12,600  Level Seattle Center
Thu 06:23:48 PM 43.1775 -120.1917 355° North 163 188 12,600  Level Seattle Center
Thu 06:24:49 PM 43.2203 -120.1947 357° North 160 184 12,600  Level Seattle Center
Thu 06:25:50 PM 43.2606 -120.1947 360° North 153 176 12,600  Level Seattle Center
Thu 06:26:51 PM 43.3028 -120.1975 357° North 152 175 12,600  Level Seattle Center
Thu 06:27:53 PM 43.3450 -120.2028 355° North 152 175 12,600  Level Seattle Center
Thu 06:28:54 PM 43.3867 -120.2017 North 151 174 12,600  Level Seattle Center
Thu 06:29:55 PM 43.4303 -120.2058 356° North 158 182 12,600  Level Seattle Center
Thu 06:30:56 PM 43.4814 -120.2094 357° North 154 177 12,600  Level Seattle Center
Thu 06:31:57 PM 43.5236 -120.2128 357° North 154 177 12,600  Level Seattle Center
Thu 06:32:58 PM 43.5650 -120.2153 357° North 155 178 12,600  Level Seattle Center
Thu 06:33:59 PM 43.6056 -120.2208 354° North 154 177 12,600  Level Seattle Center
Thu 06:35:00 PM 43.6464 -120.2231 358° North 150 173 12,600  Level Seattle Center
Thu 06:36:01 PM 43.6869 -120.2211 North 149 171 12,600  Level Seattle Center
Thu 06:37:02 PM 43.7275 -120.2258 355° North 149 171 12,600  Level Seattle Center
Thu 06:38:03 PM 43.7694 -120.2269 359° North 152 175 12,600  Level Seattle Center
Thu 06:39:04 PM 43.8094 -120.2308 356° North 146 168 12,600  Level Seattle Center
Thu 06:40:05 PM 43.8517 -120.2339 357° North 149 171 12,600  Level Seattle Center
Thu 06:41:06 PM 43.9008 -120.2369 357° North 148 170 12,600  Level Seattle Center
Thu 06:42:07 PM 43.9436 -120.2383 359° North 150 173 12,600  Level Seattle Center
Thu 06:43:08 PM 43.9847 -120.2442 354° North 149 171 12,600  Level Seattle Center
Thu 06:44:09 PM 44.0278 -120.2458 358° North 152 175 12,600  Level Seattle Center
Thu 06:45:10 PM 44.0711 -120.2506 356° North 156 180 12,600  Level Seattle Center
Thu 06:46:11 PM 44.1125 -120.2528 358° North 151 174 12,600  Level Seattle Center
Thu 06:47:12 PM 44.1561 -120.2550 358° North 153 176 12,600  Level Seattle Center
Thu 06:48:13 PM 44.2000 -120.2597 356° North 157 181 12,600  Level Seattle Center
Thu 06:49:14 PM 44.2419 -120.2633 356° North 153 176 12,600  Level Seattle Center
Thu 06:50:15 PM 44.2850 -120.2642 359° North 155 178 12,600  Level Seattle Center
Thu 06:51:16 PM 44.3281 -120.2700 354° North 155 178 12,600  Level Seattle Center
Thu 06:52:17 PM 44.3706 -120.2717 358° North 155 178 12,600  Level Seattle Center
Thu 06:53:18 PM 44.4225 -120.2769 356° North 154 177 12,600  Level Seattle Center
Thu 06:54:20 PM 44.4658 -120.2803 357° North 156 180 12,600  Level Seattle Center
Thu 06:55:21 PM 44.5089 -120.2833 357° North 155 178 12,600  Level Seattle Center
Thu 06:56:22 PM 44.5531 -120.2853 358° North 157 181 12,600 -49 Level Seattle Center
Thu 06:57:23 PM 44.5986 -120.2897 356° North 162 186 12,500 -98 Descending Seattle Center
Thu 06:58:24 PM 44.6436 -120.2925 357° North 162 186 12,400 -97 Descending Seattle Center
Thu 06:59:27 PM 44.6886 -120.2961 357° North 162 186 12,300 -48 Descending Seattle Center
Thu 07:00:28 PM 44.7344 -120.3003 356° North 164 189 12,300 -98 Level Seattle Center
Thu 07:01:29 PM 44.7803 -120.3025 358° North 164 189 12,100 -148 Descending Seattle Center
Thu 07:02:30 PM 44.8239 -120.3069 356° North 160 184 12,000 -98 Descending Seattle Center
Thu 07:03:31 PM 44.8675 -120.3094 358° North 157 181 11,900 -148 Descending Seattle Center
Thu 07:04:32 PM 44.9194 -120.3142 356° North 156 180 11,700 -197 Descending Seattle Center
Thu 07:05:33 PM 44.9644 -120.3161 358° North 159 183 11,500 -197 Descending Seattle Center
Thu 07:06:34 PM 45.0092 -120.3200 356° North 160 184 11,300 -197 Descending Seattle Center
Thu 07:07:35 PM 45.0544 -120.3242 356° North 161 185 11,100 -197 Descending Seattle Center
Thu 07:08:36 PM 45.0994 -120.3264 358° North 162 186 10,900 -197 Descending Seattle Center
Thu 07:09:37 PM 45.1431 -120.3311 356° North 160 184 10,700 -246 Descending Seattle Center
Thu 07:10:38 PM 45.1847 -120.3344 357° North 155 178 10,400 -246 Descending Seattle Center
Thu 07:11:39 PM 45.2267 -120.3372 357° North 152 175 10,200 -197 Descending Seattle Center
Thu 07:12:40 PM 45.2694 -120.3419 356° North 153 176 10,000 -195 Descending Seattle Center
Thu 07:13:42 PM 45.3108 -120.3447 357° North 151 174 9,800 -195 Descending Seattle Center
Thu 07:14:43 PM 45.3531 -120.3481 357° North 151 174 9,600 -197 Descending Seattle Center
Thu 07:15:44 PM 45.3947 -120.3511 357° North 151 174 9,400 -148 Descending Seattle Center
Thu 07:16:45 PM 45.4344 -120.3553 356° North 147 169 9,300 -98 Descending Seattle Center
Thu 07:17:46 PM 45.4739 -120.3556 360° North 143 165 9,200 -98 Descending Seattle Center
Thu 07:18:47 PM 45.5211 -120.3597 356° North 141 162 9,100 -98 Descending Seattle Center
Thu 07:19:48 PM 45.5614 -120.3639 356° North 143 165 9,000 -98 Descending Seattle Center
Thu 07:20:49 PM 45.6003 -120.3664 357° North 141 162 8,900 -98 Descending Seattle Center
Thu 07:21:50 PM 45.6386 -120.3575 North 141 162 8,800 -98 Descending Seattle Center
Thu 07:22:51 PM 45.6756 -120.3300 27° Northeast 144 166 8,700 -49 Descending Seattle Center
Thu 07:23:52 PM 45.7161 -120.3136 16° North 149 171 8,700 -49 Level Seattle Center
Thu 07:24:53 PM 45.7522 -120.2886 26° Northeast 147 169 8,600 -98 Descending Seattle Center
Thu 07:25:54 PM 45.7908 -120.2653 23° Northeast 148 170 8,500 -98 Descending Seattle Center
Thu 07:26:55 PM 45.8283 -120.2414 24° Northeast 148 170 8,400 -98 Descending Seattle Center
Thu 07:27:56 PM 45.8658 -120.2178 24° Northeast 148 170 8,300 -98 Descending Seattle Center
Thu 07:28:57 PM 45.9033 -120.1931 25° Northeast 148 170 8,200 -98 Descending Seattle Center
Thu 07:29:58 PM 45.9400 -120.1675 26° Northeast 147 169 8,100 -49 Descending Seattle Center
Thu 07:30:59 PM 45.9833 -120.1336 29° Northeast 148 170 8,100 -49 Level Seattle Center
Thu 07:32:00 PM 46.0211 -120.1069 26° Northeast 150 173 8,000 -98 Descending Seattle Center
Thu 07:33:01 PM 46.0583 -120.0819 25° Northeast 149 171 7,900 -98 Descending Seattle Center
Thu 07:34:02 PM 46.0950 -120.0589 24° Northeast 146 168 7,800 -98 Descending Seattle Center
Thu 07:35:03 PM 46.1344 -120.0458 13° North 145 167 7,700 -148 Descending Seattle Center
Thu 07:36:04 PM 46.1747 -120.0375 North 146 168 7,500 -295 Descending Seattle Center
Thu 07:37:05 PM 46.2169 -120.0281 North 152 175 7,100 -492 Descending Seattle Center
Thu 07:38:06 PM 46.2606 -120.0375 351° North 157 181 6,500 -492 Descending Seattle Center
Thu 07:39:07 PM 46.3047 -120.0594 341° North 163 188 6,100 -197 Descending Seattle Center
Thu 07:40:08 PM 46.3461 -120.0772 343° North 155 178 6,100  Level Seattle Center
Thu 07:41:09 PM 46.3750 -120.1114 321° Northwest 143 165 6,100 -197 Level Seattle Center
Thu 07:42:10 PM 46.4019 -120.1536 313° West 144 166 5,700 -443 Descending Seattle Center
Thu 07:43:11 PM 46.4350 -120.2125 309° West 156 180 5,200 -492 Descending Seattle Center
Thu 07:44:12 PM 46.4636 -120.2625 310° West 161 185 4,700 -492 Descending Seattle Center
Thu 07:45:13 PM 46.4928 -120.3122 310° West 162 186 4,200 -492 Descending Seattle Center
Thu 07:46:14 PM 46.5256 -120.3661 311° West 166 191 3,700 -295 Descending Seattle Center
Thu 07:47:15 PM 46.5522 -120.4147 309° West 158 182 3,600 -148 Descending Seattle Center
Thu 07:48:16 PM 46.5744 -120.4569 307° West 136 157 3,400 -344 Descending Seattle Center
Thu 07:49:17 PM 46.5900 -120.5114 293° West 136 157 2,900 -443 Descending Seattle Center
Thu 07:50:18 PM 46.6056 -120.5611 294° West 137 158 2,500 -492 Descending Seattle Center
Thu 07:51:19 PM 46.5878 -120.5889 227° Southwest 121 139 1,900 -595 Descending Seattle Center
Thu 07:52:19 PM 46.5706 -120.5536 125° Southeast 112 129 1,300 -347 Descending Seattle Center
Thu 07:53:20 PM 46.5644 -120.5328 113° Southeast 76 87 1,200 -98 Descending Seattle Center
Thu 07:55:00 PM 46.5667 -120.5333 325° Northwest  Level FlightAware Approximate

Login

Don't have an account? Register now (free) for customized features, flight alerts, and more!